createdAt,value
2022-09-28T00:00:24.060Z,78.77
2022-09-28T00:02:26.599Z,78.24
2022-09-28T00:04:28.401Z,78.63
2022-09-28T00:06:30.772Z,79.20
2022-09-28T00:08:33.472Z,79.08
2022-09-28T00:10:35.089Z,79.04
2022-09-28T00:12:36.897Z,78.77
2022-09-28T00:14:40.815Z,79.53
2022-09-28T00:16:43.933Z,80.49
2022-09-28T00:18:45.994Z,80.70
2022-09-28T00:20:47.602Z,80.27
2022-09-28T00:22:49.258Z,80.35
2022-09-28T00:24:50.847Z,80.03
2022-09-28T00:26:54.949Z,80.06
2022-09-28T00:28:59.277Z,79.94
2022-09-28T00:31:01.213Z,79.44
2022-09-28T00:33:02.861Z,79.30
2022-09-28T00:35:05.029Z,78.88
2022-09-28T00:37:08.949Z,78.73
2022-09-28T00:39:11.770Z,77.77
2022-09-28T00:41:13.782Z,78.22
2022-09-28T00:43:20.449Z,78.16
2022-09-28T00:45:24.993Z,78.13
2022-09-28T00:47:55.770Z,78.04
2022-09-28T00:50:22.384Z,78.39
2022-09-28T00:52:31.361Z,78.06
2022-09-28T00:54:33.941Z,77.86
2022-09-28T00:56:36.678Z,77.32
2022-09-28T00:58:45.324Z,77.52
2022-09-28T01:00:48.601Z,77.42
2022-09-28T01:02:50.252Z,77.45
2022-09-28T01:04:52.264Z,77.36
2022-09-28T01:06:54.079Z,77.59
2022-09-28T01:08:58.908Z,77.05
2022-09-28T01:11:00.799Z,76.28
2022-09-28T01:13:02.513Z,76.73
2022-09-28T01:15:05.624Z,76.21
2022-09-28T01:17:12.277Z,77.06
2022-09-28T01:19:22.265Z,77.37
2022-09-28T01:21:24.603Z,77.26
2022-09-28T01:23:44.988Z,77.74
2022-09-28T01:26:09.246Z,77.42
2022-09-28T01:28:16.206Z,77.40
2022-09-28T01:30:20.481Z,77.83
2022-09-28T01:32:22.096Z,79.69
2022-09-28T01:35:03.710Z,80.48
2022-09-28T01:37:07.829Z,80.42
2022-09-28T01:39:12.782Z,79.57
2022-09-28T01:41:17.865Z,78.89
2022-09-28T01:43:30.509Z,78.86
2022-09-28T01:45:45.713Z,78.21
2022-09-28T01:47:48.497Z,77.18
2022-09-28T01:50:00.777Z,77.71
2022-09-28T01:52:29.713Z,76.97
2022-09-28T01:54:36.110Z,77.18
2022-09-28T01:56:46.050Z,77.71
2022-09-28T01:58:53.534Z,77.33
2022-09-28T02:01:02.687Z,77.71
2022-09-28T02:03:14.378Z,77.54
2022-09-28T02:05:19.685Z,77.72
2022-09-28T02:07:50.093Z,78.64
2022-09-28T02:09:58.702Z,79.14
2022-09-28T02:12:05.397Z,79.06
2022-09-28T02:14:11.887Z,78.24
2022-09-28T02:16:18.317Z,78.53
2022-09-28T02:18:20.250Z,78.36
2022-09-28T02:20:24.011Z,77.76
2022-09-28T02:22:27.260Z,77.50
2022-09-28T02:24:42.193Z,77.38
2022-09-28T02:26:45.876Z,78.50
2022-09-28T02:28:47.557Z,78.50
2022-09-28T02:30:49.264Z,78.94
2022-09-28T02:32:53.705Z,79.42
2022-09-28T02:34:55.510Z,79.02
2022-09-28T02:36:57.221Z,78.58
2022-09-28T02:39:02.480Z,78.64
2022-09-28T02:41:33.100Z,78.60
2022-09-28T02:43:56.681Z,78.91
2022-09-28T02:46:16.958Z,79.82
2022-09-28T02:48:44.132Z,80.23
2022-09-28T02:51:04.493Z,81.41
2022-09-28T02:53:30.683Z,81.85
2022-09-28T02:55:50.700Z,82.15
2022-09-28T02:58:11.694Z,81.57
2022-09-28T03:00:23.597Z,81.07
2022-09-28T03:02:40.560Z,80.60
2022-09-28T03:05:20.822Z,80.48
2022-09-28T03:07:38.669Z,81.05
2022-09-28T03:09:52.544Z,80.98
2022-09-28T03:11:57.326Z,81.14
2022-09-28T03:13:59.601Z,80.89
2022-09-28T03:16:13.779Z,80.71
2022-09-28T03:18:15.295Z,80.49
2022-09-28T03:20:17.425Z,80.15
2022-09-28T03:22:19.006Z,80.54
2022-09-28T03:24:20.587Z,80.18
2022-09-28T03:26:22.378Z,80.15
2022-09-28T03:28:24.012Z,80.08
2022-09-28T03:30:25.639Z,79.89
2022-09-28T03:32:27.280Z,79.59
2022-09-28T03:34:28.849Z,79.69
2022-09-28T03:36:30.481Z,80.00
2022-09-28T03:38:32.127Z,79.66
2022-09-28T03:40:33.795Z,79.34
2022-09-28T03:42:37.198Z,78.80
2022-09-28T03:44:39.406Z,78.64
2022-09-28T03:46:41.052Z,79.31
2022-09-28T03:48:42.739Z,79.76
2022-09-28T03:50:44.381Z,79.39
2022-09-28T03:52:46.084Z,79.83
2022-09-28T03:54:49.368Z,79.72
2022-09-28T03:56:52.294Z,79.48
2022-09-28T03:58:53.876Z,79.28
2022-09-28T04:00:55.573Z,78.73
2022-09-28T04:02:57.263Z,78.86
2022-09-28T04:04:58.833Z,78.55
2022-09-28T04:07:00.464Z,78.52
2022-09-28T04:09:02.169Z,79.17
2022-09-28T04:11:03.746Z,80.15
2022-09-28T04:13:05.397Z,80.19
2022-09-28T04:15:07.703Z,80.49
2022-09-28T04:17:09.332Z,81.14
2022-09-28T04:19:10.953Z,81.14
2022-09-28T04:21:14.338Z,80.47
2022-09-28T04:23:16.171Z,80.48
2022-09-28T04:25:17.817Z,79.81
2022-09-28T04:27:37.965Z,79.07
2022-09-28T04:29:41.777Z,79.11
2022-09-28T04:31:43.311Z,78.95
2022-09-28T04:33:45.146Z,78.73
2022-09-28T04:35:46.765Z,78.26
2022-09-28T04:37:48.429Z,78.00
2022-09-28T04:39:50.020Z,77.87
2022-09-28T04:41:51.711Z,78.10
2022-09-28T04:43:53.340Z,78.34
2022-09-28T04:46:05.667Z,77.45
2022-09-28T04:48:08.010Z,77.14
2022-09-28T04:50:09.702Z,76.65
2022-09-28T04:52:17.212Z,77.72
2022-09-28T04:54:19.775Z,78.21
2022-09-28T04:56:21.393Z,78.27
2022-09-28T04:58:23.384Z,78.46
2022-09-28T05:00:24.951Z,79.27
2022-09-28T05:02:28.025Z,79.34
2022-09-28T05:04:30.762Z,78.89
2022-09-28T05:06:32.374Z,79.99
2022-09-28T05:08:35.420Z,79.59
2022-09-28T05:10:40.425Z,80.16
2022-09-28T05:12:42.008Z,80.08
2022-09-28T05:14:44.146Z,79.31
2022-09-28T05:16:45.817Z,78.81
2022-09-28T05:18:47.583Z,78.08
2022-09-28T05:20:49.270Z,76.80
2022-09-28T05:22:50.867Z,76.62
2022-09-28T05:24:52.545Z,75.96
2022-09-28T05:26:54.495Z,75.96
2022-09-28T05:28:56.626Z,75.58
2022-09-28T05:31:02.926Z,75.43
2022-09-28T05:33:05.087Z,75.31
2022-09-28T05:35:07.291Z,75.47
2022-09-28T05:37:08.907Z,76.25
2022-09-28T05:39:10.677Z,76.40
2022-09-28T05:41:12.862Z,77.04
2022-09-28T05:43:14.563Z,77.82
2022-09-28T05:45:16.406Z,77.72
2022-09-28T05:47:17.973Z,76.74
2022-09-28T05:49:19.633Z,76.56
2022-09-28T05:51:21.655Z,76.26
2022-09-28T05:53:23.484Z,76.15
2022-09-28T05:55:25.430Z,75.32
2022-09-28T05:57:27.129Z,74.36
2022-09-28T05:59:30.296Z,73.77
2022-09-28T06:01:32.022Z,73.71
2022-09-28T06:03:33.894Z,73.44
2022-09-28T06:05:36.314Z,72.80
2022-09-28T06:07:37.949Z,72.74
2022-09-28T06:09:39.618Z,73.10
2022-09-28T06:11:41.211Z,73.10
2022-09-28T06:13:42.849Z,73.34
2022-09-28T06:15:46.413Z,73.42
2022-09-28T06:17:48.184Z,73.09
2022-09-28T06:19:52.424Z,73.52
2022-09-28T06:21:54.031Z,74.28
2022-09-28T06:23:55.641Z,76.22
2022-09-28T06:25:59.343Z,77.56
2022-09-28T06:28:10.692Z,79.06
2022-09-28T06:30:12.615Z,79.64
2022-09-28T06:32:14.717Z,79.90
2022-09-28T06:34:16.966Z,80.17
2022-09-28T06:36:20.903Z,80.91
2022-09-28T06:38:22.618Z,80.45
2022-09-28T06:40:24.945Z,79.99
2022-09-28T06:42:26.623Z,79.95
2022-09-28T06:44:28.439Z,78.22
2022-09-28T06:46:31.518Z,78.77
2022-09-28T06:48:35.989Z,79.10
2022-09-28T06:50:40.533Z,78.98
2022-09-28T06:52:42.411Z,76.49
2022-09-28T06:54:43.998Z,76.89
2022-09-28T06:56:45.682Z,76.69
2022-09-28T06:58:48.086Z,77.16
2022-09-28T07:00:53.108Z,76.92
2022-09-28T07:02:54.827Z,76.69
2022-09-28T07:04:56.496Z,76.52
2022-09-28T07:06:59.103Z,76.56
2022-09-28T07:09:20.938Z,76.18
2022-09-28T07:11:27.016Z,77.12
2022-09-28T07:13:49.097Z,77.46
2022-09-28T07:15:58.007Z,76.97
2022-09-28T07:18:03.529Z,76.04
2022-09-28T07:20:17.247Z,74.79
2022-09-28T07:22:30.662Z,75.30
2022-09-28T07:24:36.260Z,74.24
2022-09-28T07:26:37.926Z,74.41
2022-09-28T07:28:40.509Z,74.61
2022-09-28T07:30:44.972Z,73.84
2022-09-28T07:32:48.427Z,72.38
2022-09-28T07:34:50.269Z,73.39
2022-09-28T07:36:57.435Z,73.88
2022-09-28T07:38:59.152Z,74.38
2022-09-28T07:41:12.873Z,74.37
2022-09-28T07:43:14.793Z,74.32
2022-09-28T07:45:16.733Z,73.52
2022-09-28T07:47:19.180Z,73.16
2022-09-28T07:49:22.491Z,72.82
2022-09-28T07:51:24.162Z,72.35
2022-09-28T07:53:25.953Z,71.68
2022-09-28T07:55:27.543Z,72.19
2022-09-28T07:57:29.378Z,72.12
2022-09-28T07:59:31.768Z,71.86
2022-09-28T08:01:33.438Z,71.49
2022-09-28T08:03:35.734Z,71.33
2022-09-28T08:05:37.643Z,70.66
2022-09-28T08:07:39.363Z,71.52
2022-09-28T08:09:41.078Z,71.81
2022-09-28T08:11:43.891Z,71.38
2022-09-28T08:13:46.550Z,71.30
2022-09-28T08:15:51.621Z,71.16
2022-09-28T08:17:53.444Z,70.88
2022-09-28T08:20:13.849Z,70.82
2022-09-28T08:22:17.860Z,70.76
2022-09-28T08:24:19.585Z,70.33
2022-09-28T08:26:21.871Z,70.37
2022-09-28T08:28:24.219Z,70.25
2022-09-28T08:30:26.775Z,70.05
2022-09-28T08:32:29.739Z,69.49
2022-09-28T08:34:31.360Z,69.13
2022-09-28T08:36:34.467Z,68.72
2022-09-28T08:38:36.098Z,69.07
2022-09-28T08:41:04.743Z,67.61
2022-09-28T08:43:31.265Z,67.05
2022-09-28T08:45:35.001Z,67.06
2022-09-28T08:47:59.709Z,67.57
2022-09-28T08:50:03.583Z,67.95
2022-09-28T08:52:23.531Z,67.46
2022-09-28T08:54:49.094Z,67.33
2022-09-28T08:56:54.430Z,67.10
2022-09-28T08:59:00.086Z,66.58
2022-09-28T09:01:02.533Z,64.41
2022-09-28T09:03:06.319Z,65.67
2022-09-28T09:05:14.872Z,66.09
2022-09-28T09:07:25.690Z,65.89
2022-09-28T09:10:01.154Z,63.29
2022-09-28T09:12:03.426Z,63.58
2022-09-28T09:14:21.521Z,63.82
2022-09-28T09:16:28.758Z,63.42
2022-09-28T09:18:58.846Z,62.94
2022-09-28T09:21:10.535Z,62.78
2022-09-28T09:24:07.668Z,61.05
2022-09-28T09:26:22.647Z,58.88
2022-09-28T09:28:35.278Z,59.48
2022-09-28T09:31:05.754Z,59.30
2022-09-28T09:33:39.853Z,59.63
2022-09-28T09:36:09.409Z,58.76
2022-09-28T09:38:32.562Z,57.92
2022-09-28T09:40:38.515Z,58.10
2022-09-28T09:42:59.321Z,56.79
2022-09-28T09:45:24.844Z,57.36
2022-09-28T09:47:32.298Z,57.35
2022-09-28T09:49:44.096Z,56.43
2022-09-28T09:52:14.652Z,56.56
2022-09-28T09:54:19.532Z,54.87
2022-09-28T09:56:50.038Z,55.32
2022-09-28T09:58:54.054Z,53.92
2022-09-28T10:01:08.521Z,54.35
2022-09-28T10:03:24.205Z,54.28
2022-09-28T10:05:27.867Z,55.46
2022-09-28T10:07:43.204Z,55.22
2022-09-28T10:09:46.656Z,55.47
2022-09-28T10:11:50.442Z,54.30
2022-09-28T10:13:52.040Z,54.56
2022-09-28T10:15:53.696Z,53.45
2022-09-28T10:17:56.901Z,53.00
2022-09-28T10:19:58.960Z,52.32
2022-09-28T10:22:04.274Z,51.63
2022-09-28T10:24:07.801Z,51.16
2022-09-28T10:26:16.583Z,52.24
2022-09-28T10:28:23.020Z,52.87
2022-09-28T10:30:25.696Z,52.38
2022-09-28T10:32:36.757Z,52.43
2022-09-28T10:34:38.524Z,51.95
2022-09-28T10:36:50.722Z,50.94
2022-09-28T10:38:54.254Z,50.75
2022-09-28T10:40:58.660Z,49.86
2022-09-28T10:43:01.008Z,49.77
2022-09-28T10:45:05.633Z,49.47
2022-09-28T10:47:15.301Z,48.29
2022-09-28T10:49:18.333Z,48.29
2022-09-28T10:51:20.366Z,47.92
2022-09-28T10:53:21.942Z,48.11
2022-09-28T10:55:32.179Z,45.92
2022-09-28T10:57:36.780Z,46.91
2022-09-28T10:59:42.162Z,45.62
2022-09-28T11:01:43.970Z,45.26
2022-09-28T11:03:57.817Z,45.12
2022-09-28T11:06:08.899Z,44.49
2022-09-28T11:08:20.782Z,43.71
2022-09-28T11:10:28.666Z,43.38
2022-09-28T11:12:38.185Z,44.05
2022-09-28T11:14:42.604Z,44.84
2022-09-28T11:16:44.548Z,45.09
2022-09-28T11:18:46.147Z,44.86
2022-09-28T11:20:49.574Z,45.25
2022-09-28T11:22:53.585Z,44.67
2022-09-28T11:25:16.518Z,43.31
2022-09-28T11:27:25.498Z,44.02
2022-09-28T11:29:36.522Z,43.50
2022-09-28T11:31:39.809Z,43.70
2022-09-28T11:33:45.796Z,43.18
2022-09-28T11:36:14.959Z,42.30
2022-09-28T11:38:27.308Z,42.95
2022-09-28T11:40:29.008Z,42.50
2022-09-28T11:42:58.457Z,41.40
2022-09-28T11:45:29.798Z,41.05
2022-09-28T11:47:52.906Z,41.86
2022-09-28T11:50:23.831Z,42.57
2022-09-28T11:52:49.332Z,43.61
2022-09-28T11:55:05.682Z,42.88
2022-09-28T11:57:15.618Z,42.74
2022-09-28T11:59:32.011Z,43.00
2022-09-28T12:01:57.822Z,43.30
2022-09-28T12:04:04.438Z,42.95
2022-09-28T12:06:09.103Z,43.08
2022-09-28T12:08:19.958Z,42.14
2022-09-28T12:10:49.985Z,41.33
2022-09-28T12:12:58.429Z,41.14
2022-09-28T12:15:04.557Z,42.08
2022-09-28T12:18:04.773Z,40.93
2022-09-28T12:20:27.715Z,40.85
2022-09-28T12:22:35.180Z,41.78
2022-09-28T12:24:44.448Z,41.39
2022-09-28T12:27:10.096Z,41.07
2022-09-28T12:29:26.173Z,39.34
2022-09-28T12:31:32.487Z,38.43
2022-09-28T12:33:34.213Z,39.28
2022-09-28T12:35:41.322Z,39.29
2022-09-28T12:37:45.781Z,39.65
2022-09-28T12:40:13.130Z,39.92
2022-09-28T12:42:44.440Z,40.82
2022-09-28T12:44:46.017Z,40.83
2022-09-28T12:47:16.284Z,40.79
2022-09-28T12:51:48.584Z,40.22
2022-09-28T12:54:19.004Z,40.12
2022-09-28T12:56:24.388Z,39.70
2022-09-28T12:58:44.823Z,39.65
2022-09-28T13:00:59.661Z,39.29
2022-09-28T13:03:31.424Z,39.51
2022-09-28T13:06:09.816Z,39.76
2022-09-28T13:08:25.516Z,39.80
2022-09-28T13:10:35.964Z,39.74
2022-09-28T13:13:02.449Z,40.16
2022-09-28T13:15:39.842Z,41.18
2022-09-28T13:17:54.877Z,41.06
2022-09-28T13:20:15.733Z,41.42
2022-09-28T13:22:35.893Z,41.53
2022-09-28T13:24:38.994Z,41.70
2022-09-28T13:26:44.866Z,41.33
2022-09-28T13:28:47.687Z,42.05
2022-09-28T13:30:50.759Z,41.42
2022-09-28T13:32:54.478Z,41.62
2022-09-28T13:34:56.724Z,41.54
2022-09-28T13:37:23.537Z,41.51
2022-09-28T13:39:37.686Z,40.68
2022-09-28T13:41:40.620Z,41.01
2022-09-28T13:44:00.449Z,40.84
2022-09-28T13:46:34.486Z,41.64
2022-09-28T13:48:48.757Z,40.83
2022-09-28T13:51:12.000Z,41.02
2022-09-28T13:53:25.784Z,41.02
2022-09-28T13:55:48.914Z,41.37
2022-09-28T13:58:31.012Z,41.44
2022-09-28T14:00:43.539Z,41.56
2022-09-28T14:02:54.235Z,42.09
2022-09-28T14:05:04.810Z,42.06
2022-09-28T14:07:23.232Z,42.34
2022-09-28T14:09:39.041Z,42.27
2022-09-28T14:11:43.868Z,41.96
2022-09-28T14:14:21.528Z,42.30
2022-09-28T14:16:24.078Z,42.16
2022-09-28T14:18:29.935Z,42.18
2022-09-28T14:20:31.935Z,41.89
2022-09-28T14:22:36.159Z,42.01
2022-09-28T14:25:06.518Z,41.84
2022-09-28T14:27:17.284Z,41.58
2022-09-28T14:29:29.779Z,41.89
2022-09-28T14:31:31.419Z,41.56
2022-09-28T14:33:34.124Z,41.43
2022-09-28T14:35:40.505Z,41.63
2022-09-28T14:38:01.152Z,41.65
2022-09-28T14:40:54.449Z,41.09
2022-09-28T14:43:33.375Z,41.04
2022-09-28T14:45:36.456Z,41.13
2022-09-28T14:47:42.814Z,41.30
2022-09-28T14:49:45.780Z,41.46
2022-09-28T14:51:47.328Z,41.01
2022-09-28T14:53:50.577Z,41.15
2022-09-28T14:55:58.536Z,40.96
2022-09-28T14:58:00.123Z,40.97
2022-09-28T15:00:09.056Z,41.31
2022-09-28T15:02:10.598Z,41.27
2022-09-28T15:04:12.901Z,40.45
2022-09-28T15:06:16.203Z,39.70
2022-09-28T15:08:21.098Z,39.87
2022-09-28T15:10:27.703Z,40.02
2022-09-28T15:12:32.963Z,39.70
2022-09-28T15:14:40.542Z,40.19
2022-09-28T15:16:42.274Z,39.86
2022-09-28T15:19:09.471Z,40.30
2022-09-28T15:21:12.472Z,40.15
2022-09-28T15:23:39.160Z,40.05
2022-09-28T15:25:41.027Z,40.94
2022-09-28T15:27:42.867Z,40.67
2022-09-28T15:30:15.612Z,40.86
2022-09-28T15:32:24.912Z,40.76
2022-09-28T15:34:46.452Z,40.11
2022-09-28T15:36:48.389Z,40.07
2022-09-28T15:39:00.510Z,40.25
2022-09-28T15:41:06.891Z,40.11
2022-09-28T15:43:28.954Z,41.34
2022-09-28T15:45:35.307Z,41.36
2022-09-28T15:47:38.830Z,41.64
2022-09-28T15:49:44.534Z,41.64
2022-09-28T15:51:50.210Z,41.88
2022-09-28T15:53:58.414Z,42.23
2022-09-28T15:56:05.639Z,42.74
2022-09-28T15:58:15.867Z,42.97
2022-09-28T16:00:26.281Z,43.18
2022-09-28T16:02:28.114Z,43.30
2022-09-28T16:04:48.261Z,43.80
2022-09-28T16:07:27.636Z,44.09
2022-09-28T16:09:36.081Z,44.24
2022-09-28T16:11:42.054Z,44.56
2022-09-28T16:14:01.878Z,44.74
2022-09-28T16:16:03.599Z,45.35
2022-09-28T16:18:20.796Z,45.16
2022-09-28T16:20:40.287Z,45.51
2022-09-28T16:22:43.139Z,45.67
2022-09-28T16:24:54.274Z,45.86
2022-09-28T16:27:07.388Z,45.87
2022-09-28T16:29:25.825Z,45.90
2022-09-28T16:31:33.770Z,46.05
2022-09-28T16:33:43.784Z,45.93
2022-09-28T16:35:48.337Z,45.98
2022-09-28T16:37:58.078Z,46.12
2022-09-28T16:39:59.657Z,46.09
2022-09-28T16:42:03.184Z,46.11
2022-09-28T16:44:04.931Z,46.22
2022-09-28T16:46:12.127Z,45.86
2022-09-28T16:48:17.157Z,45.77
2022-09-28T16:50:22.913Z,46.03
2022-09-28T16:52:43.070Z,45.76
2022-09-28T16:55:07.442Z,45.76
2022-09-28T16:57:19.506Z,45.67
2022-09-28T16:59:22.313Z,46.06
2022-09-28T17:01:24.716Z,45.92
2022-09-28T17:03:27.259Z,46.05
2022-09-28T17:05:29.540Z,46.10
2022-09-28T17:07:31.899Z,46.26
2022-09-28T17:09:33.951Z,46.50
2022-09-28T17:11:35.514Z,46.21
2022-09-28T17:13:37.493Z,46.22
2022-09-28T17:15:40.097Z,46.67
2022-09-28T17:17:41.954Z,46.73
2022-09-28T17:19:44.862Z,46.31
2022-09-28T17:21:46.879Z,46.21
2022-09-28T17:23:49.814Z,46.00
2022-09-28T17:25:53.752Z,45.99
2022-09-28T17:27:57.708Z,46.13
2022-09-28T17:29:59.337Z,46.18
2022-09-28T17:32:01.108Z,46.36
2022-09-28T17:34:03.018Z,46.54
2022-09-28T17:36:05.255Z,46.58
2022-09-28T17:38:06.997Z,46.42
2022-09-28T17:40:35.095Z,46.47
2022-09-28T17:42:36.816Z,46.65
2022-09-28T17:44:38.379Z,46.67
2022-09-28T17:46:47.454Z,46.81
2022-09-28T17:48:49.760Z,46.34
2022-09-28T17:50:51.361Z,46.11
2022-09-28T17:52:53.325Z,46.61
2022-09-28T17:54:55.197Z,46.71
2022-09-28T17:56:56.843Z,46.54
2022-09-28T17:59:10.740Z,46.69
2022-09-28T18:01:12.614Z,46.65
2022-09-28T18:03:24.669Z,46.84
2022-09-28T18:05:27.754Z,46.80
2022-09-28T18:07:31.160Z,47.20
2022-09-28T18:09:32.730Z,47.37
2022-09-28T18:11:35.278Z,47.09
2022-09-28T18:13:37.443Z,47.23
2022-09-28T18:15:39.047Z,47.37
2022-09-28T18:17:40.906Z,47.52
2022-09-28T18:19:42.560Z,47.01
2022-09-28T18:21:44.118Z,47.22
2022-09-28T18:23:45.738Z,47.16
2022-09-28T18:25:48.348Z,47.41
2022-09-28T18:27:49.930Z,47.13
2022-09-28T18:29:51.678Z,47.35
2022-09-28T18:31:53.326Z,47.04
2022-09-28T18:34:01.757Z,46.67
2022-09-28T18:36:04.638Z,47.28
2022-09-28T18:38:07.007Z,46.52
2022-09-28T18:40:10.223Z,46.56
2022-09-28T18:42:12.746Z,46.89
2022-09-28T18:44:14.732Z,46.56
2022-09-28T18:46:18.310Z,46.66
2022-09-28T18:48:20.188Z,46.68
2022-09-28T18:50:22.172Z,47.08
2022-09-28T18:52:23.801Z,47.03
2022-09-28T18:54:25.512Z,46.93
2022-09-28T18:56:27.186Z,47.17
2022-09-28T18:58:28.773Z,47.31
2022-09-28T19:00:30.422Z,49.04
2022-09-28T19:02:32.273Z,50.20
2022-09-28T19:04:34.027Z,50.24
2022-09-28T19:06:40.720Z,52.59
2022-09-28T19:08:43.217Z,53.27
2022-09-28T19:10:46.958Z,53.42
2022-09-28T19:12:48.648Z,52.82
2022-09-28T19:14:50.321Z,52.70
2022-09-28T19:16:52.075Z,51.13
2022-09-28T19:18:53.965Z,50.41
2022-09-28T19:20:55.822Z,51.08
2022-09-28T19:22:57.787Z,51.11
2022-09-28T19:24:59.427Z,51.61
2022-09-28T19:27:01.008Z,51.60
2022-09-28T19:29:03.290Z,51.87
2022-09-28T19:31:06.662Z,52.31
2022-09-28T19:33:08.260Z,52.41
2022-09-28T19:35:10.003Z,52.53
2022-09-28T19:37:11.665Z,52.96
2022-09-28T19:39:14.716Z,54.45
2022-09-28T19:41:42.225Z,54.99
2022-09-28T19:43:44.942Z,53.67
2022-09-28T19:45:52.072Z,52.91
2022-09-28T19:47:58.666Z,55.33
2022-09-28T19:50:00.919Z,55.65
2022-09-28T19:52:15.886Z,56.11
2022-09-28T19:54:19.075Z,55.15
2022-09-28T19:56:21.618Z,54.36
2022-09-28T19:58:25.775Z,55.30
2022-09-28T20:00:27.786Z,53.90
2022-09-28T20:02:29.459Z,54.21
2022-09-28T20:04:31.128Z,54.39
2022-09-28T20:06:32.809Z,53.82
2022-09-28T20:08:35.735Z,52.99
2022-09-28T20:10:37.619Z,52.73
2022-09-28T20:12:41.145Z,54.10
2022-09-28T20:14:42.926Z,51.70
2022-09-28T20:16:46.344Z,50.45
2022-09-28T20:18:51.608Z,50.43
2022-09-28T20:21:02.301Z,50.89
2022-09-28T20:23:04.899Z,50.76
2022-09-28T20:25:07.089Z,51.59
2022-09-28T20:27:08.744Z,52.94
2022-09-28T20:29:10.917Z,53.69
2022-09-28T20:31:18.167Z,54.54
2022-09-28T20:33:28.657Z,54.45
2022-09-28T20:35:33.334Z,55.14
2022-09-28T20:37:35.066Z,54.40
2022-09-28T20:39:39.394Z,53.51
2022-09-28T20:41:43.491Z,53.51
2022-09-28T20:43:46.795Z,54.16
2022-09-28T20:45:50.787Z,54.70
2022-09-28T20:47:52.696Z,54.75
2022-09-28T20:49:54.265Z,54.89
2022-09-28T20:51:55.928Z,55.45
2022-09-28T20:53:58.891Z,55.50
2022-09-28T20:56:21.731Z,56.10
2022-09-28T20:58:23.375Z,56.74
2022-09-28T21:00:25.078Z,57.34
2022-09-28T21:02:26.845Z,57.89
2022-09-28T21:04:28.572Z,57.98
2022-09-28T21:06:32.306Z,58.57
2022-09-28T21:08:33.814Z,59.57
2022-09-28T21:10:35.395Z,60.19
2022-09-28T21:12:37.532Z,60.24
2022-09-28T21:14:39.103Z,59.91
2022-09-28T21:16:40.730Z,60.05
2022-09-28T21:18:43.017Z,60.10
2022-09-28T21:20:50.528Z,60.85
2022-09-28T21:22:52.187Z,60.98
2022-09-28T21:24:53.920Z,60.82
2022-09-28T21:26:55.694Z,60.56
2022-09-28T21:29:05.719Z,60.88
2022-09-28T21:31:09.676Z,60.80
2022-09-28T21:33:11.352Z,60.33
2022-09-28T21:35:12.984Z,60.45
2022-09-28T21:37:14.830Z,60.35
2022-09-28T21:39:16.659Z,60.36
2022-09-28T21:41:18.226Z,60.90
2022-09-28T21:43:19.997Z,62.08
2022-09-28T21:45:21.870Z,62.23
2022-09-28T21:47:23.502Z,62.39
2022-09-28T21:49:25.132Z,62.27
2022-09-28T21:51:27.219Z,62.27
2022-09-28T21:53:34.624Z,61.89
2022-09-28T21:55:36.742Z,62.54
2022-09-28T21:57:38.326Z,62.55
2022-09-28T21:59:39.944Z,63.05
2022-09-28T22:01:42.841Z,63.35
2022-09-28T22:03:48.011Z,64.00
2022-09-28T22:05:51.606Z,64.09
2022-09-28T22:07:54.072Z,64.48
2022-09-28T22:09:55.651Z,64.10
2022-09-28T22:11:57.325Z,64.43
2022-09-28T22:14:00.213Z,64.10
2022-09-28T22:16:02.328Z,64.80
2022-09-28T22:18:04.029Z,64.66
2022-09-28T22:20:06.189Z,64.61
2022-09-28T22:22:08.657Z,64.70
2022-09-28T22:24:10.445Z,64.50
2022-09-28T22:26:17.896Z,64.66
2022-09-28T22:28:19.587Z,64.68
2022-09-28T22:30:21.202Z,64.29
2022-09-28T22:32:24.091Z,64.14
2022-09-28T22:34:27.436Z,64.54
2022-09-28T22:36:29.450Z,64.30
2022-09-28T22:38:32.184Z,64.54
2022-09-28T22:40:33.886Z,64.80
2022-09-28T22:42:35.506Z,64.85
2022-09-28T22:44:37.802Z,65.10
2022-09-28T22:46:39.688Z,65.20
2022-09-28T22:48:44.669Z,65.38
2022-09-28T22:50:50.807Z,64.99
2022-09-28T22:52:52.381Z,65.64
2022-09-28T22:54:54.097Z,66.12
2022-09-28T22:56:55.806Z,65.50
2022-09-28T22:58:57.963Z,65.42
2022-09-28T23:01:14.778Z,65.05
2022-09-28T23:03:16.636Z,64.60
2022-09-28T23:05:19.179Z,64.15
2022-09-28T23:07:21.744Z,64.29
2022-09-28T23:09:23.372Z,64.62
2022-09-28T23:11:25.088Z,64.61
2022-09-28T23:13:27.239Z,64.63
2022-09-28T23:15:29.656Z,64.66
2022-09-28T23:17:31.290Z,64.46
2022-09-28T23:19:33.231Z,64.74
2022-09-28T23:21:34.839Z,64.63
2022-09-28T23:23:36.431Z,64.95
2022-09-28T23:25:38.212Z,65.05
2022-09-28T23:27:39.882Z,64.97
2022-09-28T23:29:46.886Z,64.51
2022-09-28T23:31:48.529Z,65.08
2022-09-28T23:33:50.848Z,66.10
2022-09-28T23:35:52.427Z,66.76
2022-09-28T23:37:54.078Z,66.75
2022-09-28T23:39:56.076Z,66.58
2022-09-28T23:41:58.954Z,66.85
2022-09-28T23:44:00.969Z,66.65
2022-09-28T23:46:03.977Z,66.66
2022-09-28T23:48:05.640Z,66.58
2022-09-28T23:50:08.045Z,66.78
2022-09-28T23:52:09.678Z,67.01
2022-09-28T23:54:11.631Z,66.83
2022-09-28T23:56:14.774Z,66.76
2022-09-28T23:58:16.461Z,66.92
